Terminal Aerodrome Forecast
Issued by NWS North Platte, NE

Home | Current Version | Previous Version | Graphics & Text | Print | Product List | Glossary On
Versions: 1 2 3 4 5 6 7 8 9 10 11 12 13 14 15 16 17
000
FTUS43 KLBF 180500 AAA
TAFVTN
TAF AMD
KVTN 180527Z 1805/1824 15012KT P6SM BKN050
     FM180600 15014G21KT P6SM SCT050 SCT150
     FM181500 20018G26KT P6SM SCT150=

USA.gov is the U.S. government's official web portal to all federal, state and local government web resources and services.